Time;durP1;ratioP1;P1;durP2;ratioP2;P2;SDS_P1;SDS_P2;PMS_P1;PMS_P2;Temp;Humidity;BMP_temperature;BMP_pressure;BME280_temperature;BME280_humidity;BME280_pressure;Samples;Min_cycle;Max_cycle;Signal;HPM_P1;HPM_P2
2021/12/17 00:05:04;;;;;;;28.27;25.60;;;;;;;9.15;92.56;103802.28;10437701;27;20314;-82
2021/12/17 00:10:09;;;;;;;29.43;26.73;;;;;;;9.30;92.76;103827.75;10440441;28;20204;-83
2021/12/17 00:15:13;;;;;;;29.10;26.23;;;;;;;9.50;92.48;103859.44;10435773;28;20218;-82
2021/12/17 00:52:15;;;;;;;27.53;25.40;;;;;;;9.57;93.25;103867.31;10393579;28;20236;-83
2021/12/17 00:57:19;;;;;;;27.60;25.33;;;;;;;9.56;92.63;103853.09;10384526;28;20237;-83
2021/12/17 01:02:25;;;;;;;27.97;25.77;;;;;;;9.23;92.62;103814.56;10363016;28;20225;-82
2021/12/17 01:07:30;;;;;;;26.63;24.80;;;;;;;8.32;92.17;103658.84;10363570;28;20221;-83
2021/12/17 01:12:32;;;;;;;26.77;24.80;;;;;;;9.55;92.27;103862.91;10365545;28;20245;-82
2021/12/17 01:17:39;;;;;;;29.50;27.30;;;;;;;9.57;92.40;103852.22;10358449;28;20217;-82
2021/12/17 01:44:09;;;;;;;32.27;26.83;;;;;;;9.54;92.28;103850.44;10324193;28;20215;-83
2021/12/17 01:49:28;;;;;;;27.03;24.97;;;;;;;9.53;92.41;103858.47;10366761;28;20232;-82
2021/12/17 01:59:49;;;;;;;28.80;26.57;;;;;;;9.33;92.02;103818.84;10360616;28;20318;-83
2021/12/17 02:04:52;;;;;;;28.37;25.50;;;;;;;9.55;92.02;103859.38;10359095;28;20255;-83
2021/12/17 02:10:34;;;;;;;34.13;27.77;;;;;;;9.24;92.53;103808.34;10359106;28;20209;-83
2021/12/17 02:21:36;;;;;;;30.00;27.40;;;;;;;9.51;92.04;103849.63;10358972;28;20244;-83
2021/12/17 02:32:00;;;;;;;51.00;29.40;;;;;;;9.40;91.90;103816.94;10360694;28;20709;-83
2021/12/17 02:37:07;;;;;;;31.10;28.47;;;;;;;9.38;92.53;103814.31;10361529;28;20547;-83
2021/12/17 02:42:35;;;;;;;34.50;31.20;;;;;;;9.51;92.29;103830.94;10362819;28;20208;-83
2021/12/17 02:47:37;;;;;;;34.90;31.53;;;;;;;9.52;92.47;103838.94;10359971;28;20785;-83
2021/12/17 02:52:41;;;;;;;33.17;30.10;;;;;;;9.54;92.62;103837.13;10358521;28;20209;-83
2021/12/17 02:57:43;;;;;;;35.00;31.53;;;;;;;9.55;92.71;103833.56;10359331;28;20245;-83
2021/12/17 03:02:47;;;;;;;38.00;30.70;;;;;;;9.44;92.63;103824.88;10359048;28;20282;-83
2021/12/17 03:07:50;;;;;;;36.37;32.67;;;;;;;9.33;92.13;103817.03;10359325;28;20221;-83
2021/12/17 03:12:57;;;;;;;38.10;34.10;;;;;;;9.56;92.90;103834.41;10358827;28;20205;-83
2021/12/17 03:23:27;;;;;;;40.33;36.10;;;;;;;9.57;92.95;103832.63;10326174;28;20321;-83
2021/12/17 03:28:29;;;;;;;42.20;37.60;;;;;;;9.57;93.20;103829.97;10357357;28;20235;-83
2021/12/17 03:33:31;;;;;;;42.10;37.57;;;;;;;9.59;92.92;103844.16;10359088;28;20224;-83
2021/12/17 03:38:35;;;;;;;42.70;38.17;;;;;;;9.60;93.39;103843.25;10360062;28;20213;-84
2021/12/17 03:43:37;;;;;;;44.90;37.20;;;;;;;9.60;92.69;103849.47;10360796;28;20685;-84
2021/12/17 03:48:40;;;;;;;51.97;38.50;;;;;;;9.43;93.52;103800.88;10359001;28;20240;-83
2021/12/17 03:53:49;;;;;;;52.40;40.20;;;;;;;9.61;92.91;103832.56;10359219;28;20304;-83
2021/12/17 03:58:54;;;;;;;46.07;38.17;;;;;;;9.62;92.75;103842.31;10357362;28;20240;-83
2021/12/17 04:03:55;;;;;;;48.60;40.87;;;;;;;9.31;93.37;103794.88;10355159;28;20220;-83
2021/12/17 04:08:58;;;;;;;50.50;40.17;;;;;;;9.43;93.23;103812.41;10354035;28;20232;-83
2021/12/17 04:14:00;;;;;;;56.33;42.00;;;;;;;9.67;92.79;103850.25;10357547;28;20582;-83
2021/12/17 04:19:02;;;;;;;44.33;38.30;;;;;;;9.34;93.54;103809.91;10357055;28;20626;-83
2021/12/17 04:24:05;;;;;;;46.37;40.50;;;;;;;9.68;92.92;103847.53;10353568;28;20552;-84
2021/12/17 04:29:07;;;;;;;49.10;44.10;;;;;;;7.89;93.14;103534.44;10350830;28;20708;-83
2021/12/17 04:34:11;;;;;;;47.80;42.83;;;;;;;9.55;92.96;103825.53;10359777;28;20221;-83
2021/12/17 04:39:16;;;;;;;50.33;45.33;;;;;;;9.70;93.12;103866.19;10363026;28;20220;-83
2021/12/17 04:44:22;;;;;;;49.73;44.80;;;;;;;9.04;93.50;103774.00;10361734;28;20208;-83
2021/12/17 05:00:08;;;;;;;48.00;43.43;;;;;;;9.68;92.80;103843.97;10360314;28;20196;-82
2021/12/17 05:05:11;;;;;;;43.43;39.47;;;;;;;9.67;93.10;103840.44;10373433;28;20225;-82
2021/12/17 05:10:23;;;;;;;44.20;40.43;;;;;;;9.46;93.38;103815.03;10371484;28;20229;-83
2021/12/17 05:20:46;;;;;;;39.07;36.00;;;;;;;9.65;93.30;103844.94;10346917;28;20242;-83
2021/12/17 05:25:49;;;;;;;39.37;36.03;;;;;;;9.01;92.92;103748.31;10368156;28;20270;-83
2021/12/17 05:30:53;;;;;;;37.60;34.57;;;;;;;9.43;93.18;103808.88;10373798;28;20224;-83
2021/12/17 05:35:56;;;;;;;39.20;35.90;;;;;;;9.50;93.00;103822.06;10411150;28;20327;-83
2021/12/17 05:40:59;;;;;;;39.87;36.53;;;;;;;8.97;93.34;103733.28;10405052;28;20209;-83
2021/12/17 05:46:10;;;;;;;37.47;34.50;;;;;;;9.64;93.13;103844.94;10404844;28;20228;-83
2021/12/17 05:51:12;;;;;;;38.00;34.67;;;;;;;9.58;92.66;103842.41;10408364;28;20207;-83
2021/12/17 05:56:15;;;;;;;34.07;31.47;;;;;;;9.29;93.54;103814.47;10402632;28;20326;-83
2021/12/17 06:01:17;;;;;;;34.13;31.43;;;;;;;9.59;92.53;103854.81;10392976;28;20227;-83
2021/12/17 06:06:30;;;;;;;34.40;31.73;;;;;;;9.12;92.76;103778.31;10371264;28;20695;-83
2021/12/17 06:11:35;;;;;;;36.37;33.57;;;;;;;9.57;92.99;103860.22;10368565;28;20234;-82
2021/12/17 06:16:37;;;;;;;33.57;31.00;;;;;;;9.57;92.79;103873.56;10368721;28;20715;-82
2021/12/17 06:21:39;;;;;;;33.30;30.77;;;;;;;8.69;93.05;103746.19;10371664;28;20214;-82
2021/12/17 06:26:42;;;;;;;33.60;31.00;;;;;;;9.34;92.67;103847.25;10370893;28;20228;-83
2021/12/17 06:31:43;;;;;;;34.27;31.40;;;;;;;9.42;92.67;103868.47;10380486;28;20224;-82
2021/12/17 06:36:45;;;;;;;32.87;30.40;;;;;;;9.61;93.10;103890.41;10405707;28;20228;-82
2021/12/17 06:41:49;;;;;;;31.13;28.83;;;;;;;9.62;93.27;103908.16;10404337;28;20204;-83
2021/12/17 06:46:57;;;;;;;31.93;29.40;;;;;;;9.05;92.96;103808.66;10404046;28;20223;-82
2021/12/17 07:19:33;;;;;;;33.57;30.67;;;;;;;9.65;92.67;103895.63;10397743;28;20208;-83
2021/12/17 07:24:49;;;;;;;32.53;29.83;;;;;;;9.65;92.82;103908.09;10400404;28;20200;-82
2021/12/17 07:35:36;;;;;;;30.80;27.90;;;;;;;9.34;92.99;103847.25;10364588;28;20224;-83
2021/12/17 07:40:38;;;;;;;31.07;28.37;;;;;;;9.55;93.57;103884.25;10364378;28;20267;-83
2021/12/17 07:45:41;;;;;;;30.77;28.17;;;;;;;9.47;93.18;103879.94;10361659;28;20678;-83
2021/12/17 07:50:43;;;;;;;30.03;27.67;;;;;;;9.49;93.06;103896.81;10357645;28;20208;-83
2021/12/17 07:55:45;;;;;;;31.17;28.53;;;;;;;9.69;93.07;103924.03;10354389;28;20236;-83
2021/12/17 08:00:48;;;;;;;30.73;28.00;;;;;;;9.71;93.05;103930.22;10357907;28;20235;-83
2021/12/17 08:05:50;;;;;;;32.03;29.10;;;;;;;9.48;93.26;103887.06;10358853;28;20701;-83
2021/12/17 08:10:52;;;;;;;30.13;27.47;;;;;;;9.49;93.12;103886.13;10368630;28;20255;-82
2021/12/17 08:16:27;;;;;;;29.10;26.70;;;;;;;9.76;93.25;103930.16;10368916;28;20768;-83
2021/12/17 08:27:09;;;;;;;28.47;26.07;;;;;;;9.44;92.93;103874.69;10367415;28;20254;-82
2021/12/17 08:32:12;;;;;;;28.90;26.90;;;;;;;9.20;92.54;103833.31;10362261;28;20271;-83
2021/12/17 08:37:14;;;;;;;30.17;27.47;;;;;;;9.77;92.91;103934.56;10365297;28;20648;-82
2021/12/17 08:42:16;;;;;;;28.50;26.30;;;;;;;9.47;93.23;103859.47;10366577;28;20209;-83
2021/12/17 08:47:19;;;;;;;30.23;27.90;;;;;;;9.82;93.67;103921.16;10362700;28;20213;-83
2021/12/17 08:52:21;;;;;;;29.53;27.23;;;;;;;9.82;93.70;103927.34;10367178;28;20215;-83
2021/12/17 08:57:23;;;;;;;28.00;25.90;;;;;;;9.83;93.16;103915.78;10365358;28;20228;-82
2021/12/17 09:02:26;;;;;;;29.33;27.03;;;;;;;9.86;93.85;103928.19;10365552;28;20233;-83
2021/12/17 09:07:28;;;;;;;28.67;26.53;;;;;;;9.88;93.02;103926.34;10364149;28;20313;-83
2021/12/17 09:12:29;;;;;;;29.90;27.43;;;;;;;9.86;93.52;103922.84;10362836;28;20228;-83
2021/12/17 09:17:35;;;;;;;29.40;27.10;;;;;;;9.91;93.38;103927.19;10366256;28;20209;-82
2021/12/17 09:22:37;;;;;;;29.63;27.03;;;;;;;9.94;93.54;103940.50;10366607;28;20215;-83
2021/12/17 09:27:39;;;;;;;29.00;26.80;;;;;;;9.95;93.46;103930.69;10369764;28;20233;-83
2021/12/17 09:32:43;;;;;;;29.23;27.07;;;;;;;9.99;94.01;103936.84;10365159;28;20708;-83
2021/12/17 09:37:44;;;;;;;28.43;26.13;;;;;;;9.81;93.70;103906.91;10366665;28;20212;-82
2021/12/17 09:42:47;;;;;;;28.20;26.00;;;;;;;10.04;93.86;103946.53;10364586;28;20224;-82
2021/12/17 09:47:50;;;;;;;26.83;24.83;;;;;;;10.06;93.37;103944.72;10363468;28;20770;-83
2021/12/17 09:52:53;;;;;;;28.73;26.53;;;;;;;9.33;93.35;103822.38;10361793;28;20216;-82
2021/12/17 09:57:55;;;;;;;28.23;26.13;;;;;;;10.11;93.67;103958.88;10364219;28;21262;-83
2021/12/17 10:02:58;;;;;;;27.70;25.77;;;;;;;10.13;93.35;103958.81;10366986;28;20217;-83
2021/12/17 10:08:02;;;;;;;29.47;27.40;;;;;;;10.15;93.07;103951.66;10365068;28;20233;-83
2021/12/17 10:13:11;;;;;;;27.93;25.93;;;;;;;10.15;93.18;103965.00;10366644;28;20209;-83
2021/12/17 10:18:14;;;;;;;26.87;24.97;;;;;;;10.13;92.80;103973.06;10373147;28;20204;-83
2021/12/17 10:23:16;;;;;;;26.97;24.93;;;;;;;10.15;93.03;103967.66;10358133;28;20209;-83
2021/12/17 10:28:18;;;;;;;26.20;24.50;;;;;;;10.14;92.74;103966.81;10362959;28;20244;-84
2021/12/17 10:33:24;;;;;;;23.13;21.83;;;;;;;10.12;92.48;103971.28;10361104;28;20711;-83
2021/12/17 10:38:26;;;;;;;23.40;22.10;;;;;;;10.13;92.43;103980.19;10360159;28;20217;-82
2021/12/17 10:43:34;;;;;;;22.00;20.77;;;;;;;9.89;92.51;103944.16;10359673;28;20229;-82
2021/12/17 10:48:51;;;;;;;21.73;20.50;;;;;;;9.85;92.62;103947.75;10364200;28;20807;-83
2021/12/17 10:53:57;;;;;;;22.20;20.90;;;;;;;10.14;91.96;103982.81;10360724;28;20193;-83
2021/12/17 10:59:01;;;;;;;21.10;20.10;;;;;;;10.01;91.84;103973.28;10362309;28;20229;-82
2021/12/17 11:04:18;;;;;;;20.30;19.37;;;;;;;9.91;91.97;103953.00;10368199;28;20992;-82
2021/12/17 11:09:39;;;;;;;20.37;19.47;;;;;;;10.12;91.64;103981.09;10360499;28;20756;-83
2021/12/17 11:14:42;;;;;;;20.03;19.03;;;;;;;10.13;92.05;104001.53;10362575;28;20219;-82
2021/12/17 11:19:45;;;;;;;21.27;20.13;;;;;;;10.05;91.44;103964.31;10361180;28;20647;-83
2021/12/17 11:24:48;;;;;;;20.70;19.57;;;;;;;10.09;91.42;103984.69;10362234;28;20626;-83
2021/12/17 11:29:50;;;;;;;20.47;19.47;;;;;;;9.82;90.83;103935.38;10365157;28;20223;-83
2021/12/17 11:34:54;;;;;;;20.60;19.60;;;;;;;9.84;90.88;103944.22;10372213;28;20248;-82
2021/12/17 11:40:00;;;;;;;20.90;19.90;;;;;;;9.92;90.56;103944.06;10362881;28;20213;-82
2021/12/17 11:45:25;;;;;;;20.40;19.40;;;;;;;10.03;90.75;103950.09;10362807;28;20642;-82
2021/12/17 11:50:32;;;;;;;20.77;19.67;;;;;;;9.88;90.38;103919.22;10355951;28;20319;-82
2021/12/17 11:55:36;;;;;;;20.50;19.40;;;;;;;10.04;90.75;103961.66;10359677;28;20295;-83
2021/12/17 12:00:50;;;;;;;20.17;19.17;;;;;;;9.82;90.22;103914.00;10365323;28;20600;-82
2021/12/17 12:05:56;;;;;;;20.83;19.63;;;;;;;10.04;90.25;103946.53;10360044;28;20213;-82
2021/12/17 12:11:09;;;;;;;21.33;20.23;;;;;;;10.06;90.00;103947.38;10360810;28;20233;-82
2021/12/17 12:16:16;;;;;;;20.70;19.70;;;;;;;9.84;90.23;103914.84;10356097;28;20219;-82
2021/12/17 12:21:21;;;;;;;20.90;19.90;;;;;;;10.05;90.15;103948.28;10361236;28;20216;-83
2021/12/17 12:26:33;;;;;;;21.90;20.60;;;;;;;9.41;90.22;103840.91;10358592;28;20213;-82
2021/12/17 12:32:11;;;;;;;21.57;20.47;;;;;;;10.07;89.96;103951.78;10373098;28;20225;-82
2021/12/17 12:37:24;;;;;;;21.10;20.10;;;;;;;9.86;90.16;103929.06;10368650;28;20196;-83
2021/12/17 12:42:29;;;;;;;21.73;20.63;;;;;;;10.07;89.88;103972.28;10365882;28;20197;-82
2021/12/17 12:47:59;;;;;;;21.10;20.00;;;;;;;10.06;89.40;103968.75;10366954;28;20874;-83
2021/12/17 12:53:09;;;;;;;20.70;19.63;;;;;;;10.02;88.97;103971.47;10364426;28;20227;-82
2021/12/17 12:58:14;;;;;;;20.30;19.30;;;;;;;10.00;89.36;103951.94;10372833;28;20231;-82
2021/12/17 13:03:18;;;;;;;20.80;19.70;;;;;;;9.96;88.98;103943.09;10364787;28;20229;-83
2021/12/17 13:08:23;;;;;;;21.97;20.87;;;;;;;9.73;88.59;103903.50;10367335;28;20221;-83
2021/12/17 13:13:32;;;;;;;22.00;20.87;;;;;;;9.86;89.15;103921.03;10368025;28;20753;-82
2021/12/17 13:24:08;;;;;;;22.50;21.40;;;;;;;9.92;89.98;103926.25;10476438;22;20261;-93
2021/12/17 13:29:15;;;;;;;23.43;22.00;;;;;;;9.93;89.86;103932.50;10419548;22;20239;-80
2021/12/17 13:34:22;;;;;;;22.03;20.93;;;;;;;9.18;89.83;103790.66;10398838;28;20235;-79
2021/12/17 13:39:29;;;;;;;21.23;20.13;;;;;;;9.90;89.53;103920.06;10402185;28;20212;-80
2021/12/17 13:44:38;;;;;;;22.50;21.40;;;;;;;9.65;89.86;103890.28;10406333;28;20592;-80
2021/12/17 13:49:41;;;;;;;22.93;21.73;;;;;;;9.88;89.82;103926.34;10403090;28;20236;-80
2021/12/17 13:54:47;;;;;;;21.53;20.43;;;;;;;9.84;89.74;103946.91;10403564;28;20319;-79
2021/12/17 13:59:49;;;;;;;20.73;19.73;;;;;;;9.60;89.71;103902.84;10407575;28;20201;-79
2021/12/17 14:05:04;;;;;;;20.67;19.67;;;;;;;9.57;89.36;103900.25;10406214;28;20231;-79
2021/12/17 14:10:10;;;;;;;21.50;20.50;;;;;;;9.77;89.63;103923.88;10410740;28;20914;-79
2021/12/17 14:15:16;;;;;;;20.83;19.73;;;;;;;9.52;89.30;103889.63;10412987;28;20207;-79
2021/12/17 14:20:22;;;;;;;21.10;20.10;;;;;;;9.77;89.49;103928.34;10407089;28;20695;-79
2021/12/17 14:25:28;;;;;;;21.43;20.40;;;;;;;9.77;89.63;103926.56;10406932;28;20343;-79
2021/12/17 14:30:34;;;;;;;21.23;20.20;;;;;;;9.75;89.15;103931.03;10409236;28;20232;-80
2021/12/17 14:35:50;;;;;;;21.33;20.23;;;;;;;9.67;89.33;103915.16;10408377;28;20265;-80
2021/12/17 14:40:59;;;;;;;21.43;20.43;;;;;;;9.73;88.93;103924.84;10409434;28;20212;-80
2021/12/17 14:46:13;;;;;;;21.40;20.40;;;;;;;9.74;89.53;103934.63;10408348;28;20790;-79
2021/12/17 15:02:11;;;;;;;23.50;22.17;;;;;;;9.59;88.67;103926.88;10404105;28;20704;-79
2021/12/17 15:07:13;;;;;;;22.73;21.53;;;;;;;9.65;89.42;103933.00;10400330;28;20205;-80
2021/12/17 15:12:37;;;;;;;51.63;49.22;;;;;;;9.72;87.91;103881.28;10403858;28;20455;-79
2021/12/17 15:17:41;;;;;;;23.23;21.93;;;;;;;9.64;89.18;103888.53;10399484;28;20214;-79
2021/12/17 15:22:43;;;;;;;23.30;21.90;;;;;;;9.45;89.17;103850.63;10391929;28;20290;-79
2021/12/17 15:27:47;;;;;;;22.60;21.40;;;;;;;9.88;88.35;103935.25;10401626;28;20836;-79
2021/12/17 15:32:49;;;;;;;22.53;21.33;;;;;;;9.90;88.91;103913.84;10400031;28;20223;-80
2021/12/17 15:37:51;;;;;;;22.63;21.33;;;;;;;9.79;88.42;103903.38;10398943;28;21405;-79
2021/12/17 15:43:01;;;;;;;23.80;22.37;;;;;;;9.82;88.25;103911.34;10403986;28;20211;-79
2021/12/17 15:48:04;;;;;;;20.97;19.97;;;;;;;9.85;87.49;103915.72;10401074;28;20832;-79
2021/12/17 15:53:06;;;;;;;22.07;20.93;;;;;;;9.76;87.32;103906.13;10388350;28;20657;-79
2021/12/17 15:58:09;;;;;;;21.30;20.20;;;;;;;9.68;87.86;103894.69;10396110;28;20219;-79
2021/12/17 16:03:12;;;;;;;21.27;20.27;;;;;;;9.61;87.36;103882.38;10397499;28;20223;-79
2021/12/17 16:08:14;;;;;;;21.80;20.70;;;;;;;9.68;87.39;103894.69;10396553;28;20232;-79
2021/12/17 16:18:48;;;;;;;22.60;21.50;;;;;;;9.69;87.19;103893.78;10397700;28;20215;-79
2021/12/17 16:23:52;;;;;;;22.07;20.87;;;;;;;9.87;87.32;103919.25;10398715;28;20214;-79
2021/12/17 16:28:55;;;;;;;22.07;20.97;;;;;;;9.85;86.67;103913.97;10402252;28;20231;-79
2021/12/17 16:34:01;;;;;;;22.27;21.17;;;;;;;9.87;87.13;103914.81;10402623;28;20699;-79
2021/12/17 16:39:05;;;;;;;21.97;20.80;;;;;;;9.86;86.55;103914.84;10403333;28;20289;-79
2021/12/17 16:44:11;;;;;;;21.77;20.67;;;;;;;9.88;87.09;103926.34;10404266;28;20643;-79
2021/12/17 16:49:15;;;;;;;22.90;21.63;;;;;;;9.87;86.61;103912.13;10403953;28;20269;-79
2021/12/17 16:54:18;;;;;;;23.90;22.60;;;;;;;9.67;87.09;103883.13;10400592;28;20554;-79
2021/12/17 16:59:21;;;;;;;23.60;22.30;;;;;;;9.89;86.96;103923.66;10403784;28;20566;-79
2021/12/17 17:04:22;;;;;;;23.47;22.17;;;;;;;9.15;86.94;103804.94;10401682;28;20251;-79
2021/12/17 17:09:24;;;;;;;22.10;20.90;;;;;;;9.92;86.88;103934.28;10406917;28;20216;-79
2021/12/17 17:14:27;;;;;;;23.47;22.27;;;;;;;9.90;86.66;103930.75;10403757;28;20215;-78
2021/12/17 17:19:28;;;;;;;22.93;21.73;;;;;;;9.70;87.11;103893.78;10406148;28;20645;-79
2021/12/17 17:24:30;;;;;;;24.13;22.83;;;;;;;9.51;86.65;103857.63;10406539;28;20277;-79
2021/12/17 17:29:34;;;;;;;23.93;22.63;;;;;;;9.85;87.34;103916.63;10396280;28;20229;-79
2021/12/17 17:34:36;;;;;;;24.47;23.17;;;;;;;9.93;86.66;103936.03;10402513;28;20730;-79
2021/12/17 17:39:37;;;;;;;23.50;22.30;;;;;;;9.96;86.64;103950.25;10402574;28;20208;-79
2021/12/17 17:44:40;;;;;;;24.73;23.33;;;;;;;9.83;87.19;103921.13;10388103;28;20840;-79
2021/12/17 17:49:42;;;;;;;24.93;23.50;;;;;;;9.96;87.20;103945.78;10400531;28;20278;-79
2021/12/17 17:54:44;;;;;;;25.60;24.13;;;;;;;9.66;86.86;103913.44;10400919;28;20199;-79
2021/12/17 17:59:48;;;;;;;27.30;25.57;;;;;;;9.97;87.55;103952.91;10393497;28;20267;-79
2021/12/17 18:04:50;;;;;;;26.33;24.73;;;;;;;9.98;87.76;103959.97;10393784;28;20239;-79
2021/12/17 18:09:51;;;;;;;26.90;25.37;;;;;;;9.27;87.79;103870.50;10405011;28;20232;-79
2021/12/17 18:14:54;;;;;;;25.33;23.87;;;;;;;9.74;87.57;103907.94;10400736;28;20196;-80
2021/12/17 18:19:56;;;;;;;27.23;25.70;;;;;;;9.79;88.02;103927.41;10403700;28;20212;-79
2021/12/17 18:24:58;;;;;;;25.70;24.30;;;;;;;9.74;88.21;103922.16;10401127;28;20216;-79
2021/12/17 18:30:02;;;;;;;34.73;32.83;;;;;;;9.64;88.86;103875.19;10399093;28;20825;-79
2021/12/17 18:35:04;;;;;;;26.73;25.20;;;;;;;9.98;88.76;103949.28;10404472;28;20490;-79
2021/12/17 18:40:10;;;;;;;27.57;25.97;;;;;;;9.96;88.54;103943.09;10401801;28;20213;-79
2021/12/17 18:45:13;;;;;;;26.63;25.13;;;;;;;9.91;88.62;103937.00;10404924;28;20288;-79
2021/12/17 18:50:14;;;;;;;28.07;26.37;;;;;;;9.95;88.68;103941.38;10400141;28;20231;-79
2021/12/17 18:55:16;;;;;;;28.97;27.10;;;;;;;9.93;88.61;103960.06;10400555;28;20220;-79
2021/12/17 19:00:19;;;;;;;29.90;27.83;;;;;;;9.54;88.88;103879.81;10398511;28;20220;-79
2021/12/17 19:05:23;;;;;;;29.57;27.67;;;;;;;9.89;88.84;103950.38;10401406;28;20212;-78
2021/12/17 19:10:25;;;;;;;29.43;27.63;;;;;;;9.90;89.17;103941.44;10402020;28;20804;-79
2021/12/17 19:15:28;;;;;;;29.47;27.67;;;;;;;9.67;89.56;103919.63;10405723;28;20683;-79
2021/12/17 19:20:34;;;;;;;29.20;27.50;;;;;;;9.62;89.39;103902.81;10396019;28;20239;-79
2021/12/17 19:25:37;;;;;;;29.27;27.60;;;;;;;9.87;89.31;103951.28;10399045;28;20967;-79
2021/12/17 19:30:40;;;;;;;30.47;28.53;;;;;;;9.85;89.64;103951.34;10399133;28;20721;-78
2021/12/17 19:35:42;;;;;;;29.63;27.73;;;;;;;9.88;89.50;103943.25;10398672;28;20208;-79
2021/12/17 19:40:44;;;;;;;29.83;27.93;;;;;;;9.65;89.57;103900.09;10400539;28;20219;-80
2021/12/17 19:45:47;;;;;;;30.03;28.23;;;;;;;9.94;90.07;103961.84;10403586;28;20212;-80
2021/12/17 19:50:49;;;;;;;31.33;29.40;;;;;;;9.95;89.67;103944.03;10397082;28;21476;-79
2021/12/17 19:55:51;;;;;;;31.20;29.20;;;;;;;9.98;89.79;103948.44;10392456;28;20667;-78
2021/12/17 20:00:54;;;;;;;31.57;29.57;;;;;;;10.00;89.55;103947.50;10395002;28;20741;-79
2021/12/17 20:05:56;;;;;;;31.13;29.13;;;;;;;9.93;89.77;103940.50;10398396;28;20204;-79
2021/12/17 20:10:57;;;;;;;32.20;30.07;;;;;;;9.90;89.73;103933.41;10401197;28;20227;-80
2021/12/17 20:16:00;;;;;;;34.13;31.73;;;;;;;10.02;89.87;103951.03;10401920;28;20204;-79
2021/12/17 20:21:02;;;;;;;33.90;31.50;;;;;;;9.96;89.89;103944.91;10398340;28;20215;-79
2021/12/17 20:26:05;;;;;;;34.47;31.97;;;;;;;9.99;89.83;103956.41;10401212;28;20239;-79
2021/12/17 20:31:09;;;;;;;34.53;32.03;;;;;;;9.98;90.45;103967.13;10404233;28;20290;-79
2021/12/17 20:36:12;;;;;;;32.63;30.30;;;;;;;9.98;89.95;103953.75;10406288;28;20208;-79
2021/12/17 20:41:17;;;;;;;32.67;30.33;;;;;;;9.94;90.13;103942.25;10408589;28;20247;-79
2021/12/17 20:46:20;;;;;;;34.33;32.03;;;;;;;10.00;90.10;103952.84;10402729;28;20672;-79
2021/12/17 20:51:22;;;;;;;33.93;31.43;;;;;;;9.87;90.03;103938.84;10404320;28;20224;-79
2021/12/17 20:56:25;;;;;;;31.37;29.10;;;;;;;9.97;90.30;103960.91;10401856;28;20215;-79
2021/12/17 21:01:28;;;;;;;29.67;27.77;;;;;;;9.67;90.10;103908.97;10400458;28;20243;-79
2021/12/17 21:06:32;;;;;;;28.20;26.50;;;;;;;9.77;90.02;103944.38;10398125;28;20546;-79
2021/12/17 21:11:42;;;;;;;29.40;27.57;;;;;;;9.51;89.81;103898.56;10395448;28;20231;-79
2021/12/17 21:16:47;;;;;;;26.60;25.00;;;;;;;9.57;89.53;103910.91;10397866;28;20220;-79
2021/12/17 21:21:50;;;;;;;23.03;21.83;;;;;;;9.86;89.25;103961.09;10396755;28;20208;-79
2021/12/17 21:26:53;;;;;;;21.57;20.47;;;;;;;9.55;89.64;103913.59;10399284;28;20235;-79
2021/12/17 21:31:57;;;;;;;21.33;20.23;;;;;;;9.56;88.97;103919.81;10399694;28;20856;-79
2021/12/17 21:37:00;;;;;;;22.60;21.40;;;;;;;9.79;89.18;103946.09;10399814;28;20212;-79
2021/12/17 21:42:02;;;;;;;23.50;22.30;;;;;;;9.78;89.72;103947.00;10399883;28;20212;-80
2021/12/17 21:47:07;;;;;;;22.33;21.13;;;;;;;9.74;90.03;103940.84;10395584;28;20778;-79
2021/12/17 21:52:09;;;;;;;23.30;22.10;;;;;;;9.74;89.46;103927.50;10401343;28;20231;-78
2021/12/17 21:57:11;;;;;;;24.00;22.70;;;;;;;9.89;89.47;103936.16;10399643;28;20235;-80
2021/12/17 22:02:14;;;;;;;23.27;22.07;;;;;;;9.53;89.68;103877.16;10397185;28;20261;-79
2021/12/17 22:07:17;;;;;;;22.83;21.53;;;;;;;9.67;89.75;103890.28;10402281;28;20292;-80
2021/12/17 22:12:19;;;;;;;23.03;21.93;;;;;;;9.66;89.82;103897.41;10406325;28;20220;-80
2021/12/17 22:17:23;;;;;;;23.57;22.17;;;;;;;9.26;89.96;103812.72;10403662;28;20232;-80
2021/12/17 22:22:30;;;;;;;24.00;22.70;;;;;;;8.54;89.66;103691.38;10399234;28;20655;-80
2021/12/17 22:27:32;;;;;;;23.10;21.90;;;;;;;9.86;89.56;103913.03;10397722;28;20236;-81
2021/12/17 22:32:35;;;;;;;22.07;20.97;;;;;;;9.94;89.86;103919.13;10400245;28;20239;-80
2021/12/17 22:37:37;;;;;;;21.70;20.70;;;;;;;9.93;89.64;103920.03;10399582;28;20209;-80
2021/12/17 22:42:39;;;;;;;23.00;21.60;;;;;;;9.92;90.09;103918.25;10396498;28;20212;-80
2021/12/17 22:47:42;;;;;;;22.17;20.93;;;;;;;9.91;89.89;103924.53;10389107;28;20273;-80
2021/12/17 22:52:44;;;;;;;21.40;20.30;;;;;;;9.56;89.79;103858.44;10399252;28;20232;-81
2021/12/17 22:57:46;;;;;;;20.40;19.47;;;;;;;9.92;90.13;103928.94;10398760;28;20625;-80
2021/12/17 23:02:49;;;;;;;20.63;19.63;;;;;;;9.92;90.42;103918.25;10396853;28;20690;-81
2021/12/17 23:08:09;;;;;;;21.47;20.37;;;;;;;9.93;90.17;103927.16;10406417;28;20223;-81
2021/12/17 23:13:10;;;;;;;20.40;19.33;;;;;;;9.92;90.17;103920.03;10397644;28;20228;-81
2021/12/17 23:18:13;;;;;;;20.80;19.80;;;;;;;9.67;90.46;103890.28;10393738;28;20565;-80
2021/12/17 23:23:15;;;;;;;21.40;20.33;;;;;;;9.90;90.03;103930.75;10399575;28;20222;-80
2021/12/17 23:28:17;;;;;;;20.97;19.97;;;;;;;9.04;90.21;103782.91;10393598;28;20244;-80
2021/12/17 23:38:39;;;;;;;21.37;20.37;;;;;;;9.48;90.54;103879.06;10403741;28;20222;-80
2021/12/17 23:43:41;;;;;;;20.87;19.87;;;;;;;9.87;90.39;103930.84;10400464;28;20584;-80
2021/12/17 23:48:44;;;;;;;21.67;20.67;;;;;;;9.87;90.54;103930.84;10400903;28;20254;-80
2021/12/17 23:53:45;;;;;;;21.83;20.73;;;;;;;9.87;90.97;103929.94;10401259;28;20228;-80
2021/12/17 23:58:47;;;;;;;22.30;21.20;;;;;;;9.85;91.02;103926.41;10403846;28;21776;-81
